Back to Top

Language: 

My Weather Underground Personal Weather Station Historical Data with Graphs...

Delerius Weather Station Historical Data
Daily Summary for January 7, 2018 Units:  Both    English   Metric
« Previous Day
Next Day »
Daily Weekly Monthly Yearly Custom
  High: Low: Average:
Temperature: 41.4 °F /  5.2 °C 26.4 °F /  -3.1 °C 34.4 °F /  1.3 °C
Dew Point: 34.5 °F /  1.4 °C 24.7 °F /  -4.1 °C 31.3 °F /  -0.4 °C
Humidity: 94 % 73 % 89 %
Wind Speed: 8.0 mph /  12.9 km/h - 2.9 mph /  4.7 km/h
Wind Gust: 15.0 mph /  24.1 km/h - -
Wind:- - SE
Pressure: 30.49 in /  1032.4 hPa 30.30 in /  1026 hPa -
Precipitation: 0.00 in /  0 mm    
Historical Graphs
 
 
Tabular Data for January 7, 2018
Time Temperature Dew Point Pressure Wind Wind Speed Wind Gust Humidity Rainfall Rate (Hourly) solar Conditions
00:04 34.5 °F /  1.4 °C 32.2 °F /  0.1 °C 30.31 in /  1026.3 hPa NNW 4.0 mph /  6.4 km/h 8.0 mph /  12.9 km/h 91 % 0.00 in /  0 mm 0 W/m2
00:07 34.5 °F /  1.4 °C 32.2 °F /  0.1 °C 30.30 in /  1026 hPa NNW 5.0 mph /  8 km/h 10.0 mph /  16.1 km/h 91 % 0.00 in /  0 mm 0 W/m2
00:12 34.5 °F /  1.4 °C 32.2 °F /  0.1 °C 30.30 in /  1026 hPa NNW 6.0 mph /  9.7 km/h 9.0 mph /  14.5 km/h 91 % 0.00 in /  0 mm 0 W/m2
00:17 34.5 °F /  1.4 °C 32.2 °F /  0.1 °C 30.30 in /  1026 hPa NNW 4.0 mph /  6.4 km/h 7.0 mph /  11.3 km/h 91 % 0.00 in /  0 mm 0 W/m2
00:22 34.5 °F /  1.4 °C 32.2 °F /  0.1 °C 30.31 in /  1026.3 hPa NNW 4.0 mph /  6.4 km/h 6.0 mph /  9.7 km/h 91 % 0.00 in /  0 mm 0 W/m2
00:27 34.5 °F /  1.4 °C 32.4 °F /  0.2 °C 30.30 in /  1026 hPa North 4.0 mph /  6.4 km/h 10.0 mph /  16.1 km/h 92 % 0.00 in /  0 mm 0 W/m2
00:33 34.5 °F /  1.4 °C 32.4 °F /  0.2 °C 30.30 in /  1026 hPa North 4.0 mph /  6.4 km/h 7.0 mph /  11.3 km/h 92 % 0.00 in /  0 mm 0 W/m2
00:38 34.5 °F /  1.4 °C 32.4 °F /  0.2 °C 30.30 in /  1026 hPa North 3.0 mph /  4.8 km/h 8.0 mph /  12.9 km/h 92 % 0.00 in /  0 mm 0 W/m2
00:43 34.5 °F /  1.4 °C 32.4 °F /  0.2 °C 30.31 in /  1026.3 hPa North 5.0 mph /  8 km/h 9.0 mph /  14.5 km/h 92 % 0.00 in /  0 mm 0 W/m2
00:46 34.7 °F /  1.5 °C 32.6 °F /  0.3 °C 30.31 in /  1026.3 hPa NNW 5.0 mph /  8 km/h 9.0 mph /  14.5 km/h 92 % 0.00 in /  0 mm 0 W/m2
00:48 34.5 °F /  1.4 °C 32.4 °F /  0.2 °C 30.31 in /  1026.3 hPa North 2.0 mph /  3.2 km/h 6.0 mph /  9.7 km/h 92 % 0.00 in /  0 mm 0 W/m2
00:51 34.5 °F /  1.4 °C 32.4 °F /  0.2 °C 30.31 in /  1026.3 hPa North 3.0 mph /  4.8 km/h 7.0 mph /  11.3 km/h 92 % 0.00 in /  0 mm 0 W/m2
00:57 34.5 °F /  1.4 °C 32.4 °F /  0.2 °C 30.31 in /  1026.3 hPa NNE 1.0 mph /  1.6 km/h 3.0 mph /  4.8 km/h 92 % 0.00 in /  0 mm 0 W/m2
01:00 34.5 °F /  1.4 °C 32.4 °F /  0.2 °C 30.31 in /  1026.3 hPa North 3.0 mph /  4.8 km/h 6.0 mph /  9.7 km/h 92 % 0.00 in /  0 mm 0 W/m2
01:05 34.7 °F /  1.5 °C 32.6 °F /  0.3 °C 30.32 in /  1026.6 hPa NNW 1.0 mph /  1.6 km/h 5.0 mph /  8 km/h 92 % 0.00 in /  0 mm 0 W/m2
01:15 34.5 °F /  1.4 °C 32.4 °F /  0.2 °C 30.32 in /  1026.6 hPa North 2.0 mph /  3.2 km/h 7.0 mph /  11.3 km/h 92 % 0.00 in /  0 mm 0 W/m2
01:20 34.5 °F /  1.4 °C 32.4 °F /  0.2 °C 30.32 in /  1026.6 hPa NNE 1.0 mph /  1.6 km/h 3.0 mph /  4.8 km/h 92 % 0.00 in /  0 mm 0 W/m2
01:22 34.5 °F /  1.4 °C 32.4 °F /  0.2 °C 30.32 in /  1026.6 hPa NNW 1.0 mph /  1.6 km/h 4.0 mph /  6.4 km/h 92 % 0.00 in /  0 mm 0 W/m2
01:25 34.3 °F /  1.3 °C 32.3 °F /  0.2 °C 30.32 in /  1026.6 hPa North 2.0 mph /  3.2 km/h 6.0 mph /  9.7 km/h 92 % 0.00 in /  0 mm 0 W/m2
01:29 34.5 °F /  1.4 °C 32.4 °F /  0.2 °C 30.32 in /  1026.6 hPa NNE 2.0 mph /  3.2 km/h 6.0 mph /  9.7 km/h 92 % 0.00 in /  0 mm 0 W/m2
01:34 34.3 °F /  1.3 °C 32.3 °F /  0.2 °C 30.32 in /  1026.6 hPa North 2.0 mph /  3.2 km/h 5.0 mph /  8 km/h 92 % 0.00 in /  0 mm 0 W/m2
01:40 34.3 °F /  1.3 °C 32.3 °F /  0.2 °C 30.33 in /  1027 hPa North 4.0 mph /  6.4 km/h 9.0 mph /  14.5 km/h 92 % 0.00 in /  0 mm 0 W/m2
01:45 34.3 °F /  1.3 °C 32.3 °F /  0.2 °C 30.33 in /  1027 hPa North 5.0 mph /  8 km/h 9.0 mph /  14.5 km/h 92 % 0.00 in /  0 mm 0 W/m2
01:50 34.3 °F /  1.3 °C 32.3 °F /  0.2 °C 30.33 in /  1027 hPa NNW 3.0 mph /  4.8 km/h 6.0 mph /  9.7 km/h 92 % 0.00 in /  0 mm 0 W/m2
01:54 34.3 °F /  1.3 °C 32.3 °F /  0.2 °C 30.33 in /  1027 hPa North 2.0 mph /  3.2 km/h 6.0 mph /  9.7 km/h 92 % 0.00 in /  0 mm 0 W/m2
01:59 34.3 °F /  1.3 °C 32.3 °F /  0.2 °C 30.33 in /  1027 hPa NNW 3.0 mph /  4.8 km/h 6.0 mph /  9.7 km/h 92 % 0.00 in /  0 mm 0 W/m2
02:04 34.3 °F /  1.3 °C 32.3 °F /  0.2 °C 30.33 in /  1027 hPa North 6.0 mph /  9.7 km/h 10.0 mph /  16.1 km/h 92 % 0.00 in /  0 mm 0 W/m2
02:09 34.5 °F /  1.4 °C 32.4 °F /  0.2 °C 30.33 in /  1027 hPa North 7.0 mph /  11.3 km/h 12.0 mph /  19.3 km/h 92 % 0.00 in /  0 mm 0 W/m2
02:12 34.7 °F /  1.5 °C 32.6 °F /  0.3 °C 30.34 in /  1027.3 hPa North 6.0 mph /  9.7 km/h 9.0 mph /  14.5 km/h 92 % 0.00 in /  0 mm 0 W/m2
02:17 34.9 °F /  1.6 °C 32.8 °F /  0.4 °C 30.34 in /  1027.3 hPa North 4.0 mph /  6.4 km/h 8.0 mph /  12.9 km/h 92 % 0.00 in /  0 mm 0 W/m2
02:22 34.9 °F /  1.6 °C 32.8 °F /  0.4 °C 30.34 in /  1027.3 hPa North 6.0 mph /  9.7 km/h 10.0 mph /  16.1 km/h 92 % 0.00 in /  0 mm 0 W/m2
02:27 34.9 °F /  1.6 °C 32.8 °F /  0.4 °C 30.34 in /  1027.3 hPa NNW 5.0 mph /  8 km/h 8.0 mph /  12.9 km/h 92 % 0.00 in /  0 mm 0 W/m2
02:32 34.9 °F /  1.6 °C 32.8 °F /  0.4 °C 30.34 in /  1027.3 hPa North 5.0 mph /  8 km/h 8.0 mph /  12.9 km/h 92 % 0.00 in /  0 mm 0 W/m2
02:37 35.1 °F /  1.7 °C 33.0 °F /  0.6 °C 30.34 in /  1027.3 hPa North 4.0 mph /  6.4 km/h 10.0 mph /  16.1 km/h 92 % 0.00 in /  0 mm 0 W/m2
02:42 35.1 °F /  1.7 °C 33.0 °F /  0.6 °C 30.35 in /  1027.7 hPa North 5.0 mph /  8 km/h 8.0 mph /  12.9 km/h 92 % 0.00 in /  0 mm 0 W/m2
02:47 35.1 °F /  1.7 °C 33.0 °F /  0.6 °C 30.35 in /  1027.7 hPa North 5.0 mph /  8 km/h 10.0 mph /  16.1 km/h 92 % 0.00 in /  0 mm 0 W/m2
02:52 35.1 °F /  1.7 °C 33.0 °F /  0.6 °C 30.35 in /  1027.7 hPa North 4.0 mph /  6.4 km/h 8.0 mph /  12.9 km/h 92 % 0.00 in /  0 mm 0 W/m2
02:57 35.1 °F /  1.7 °C 33.0 °F /  0.6 °C 30.35 in /  1027.7 hPa North 4.0 mph /  6.4 km/h 9.0 mph /  14.5 km/h 92 % 0.00 in /  0 mm 0 W/m2
03:02 35.1 °F /  1.7 °C 33.0 °F /  0.6 °C 30.35 in /  1027.7 hPa North 4.0 mph /  6.4 km/h 7.0 mph /  11.3 km/h 92 % 0.00 in /  0 mm 0 W/m2
03:07 35.1 °F /  1.7 °C 33.0 °F /  0.6 °C 30.35 in /  1027.7 hPa North 4.0 mph /  6.4 km/h 10.0 mph /  16.1 km/h 92 % 0.00 in /  0 mm 0 W/m2
03:12 35.2 °F /  1.8 °C 33.1 °F /  0.6 °C 30.35 in /  1027.7 hPa North 3.0 mph /  4.8 km/h 6.0 mph /  9.7 km/h 92 % 0.00 in /  0 mm 0 W/m2
03:17 35.2 °F /  1.8 °C 33.1 °F /  0.6 °C 30.35 in /  1027.7 hPa North 5.0 mph /  8 km/h 8.0 mph /  12.9 km/h 92 % 0.00 in /  0 mm 0 W/m2
03:22 35.1 °F /  1.7 °C 33.0 °F /  0.6 °C 30.36 in /  1028 hPa NNE 1.0 mph /  1.6 km/h 5.0 mph /  8 km/h 92 % 0.00 in /  0 mm 0 W/m2
03:27 35.1 °F /  1.7 °C 33.0 °F /  0.6 °C 30.36 in /  1028 hPa North 3.0 mph /  4.8 km/h 6.0 mph /  9.7 km/h 92 % 0.00 in /  0 mm 0 W/m2
03:30 35.1 °F /  1.7 °C 33.0 °F /  0.6 °C 30.36 in /  1028 hPa NNW 4.0 mph /  6.4 km/h 9.0 mph /  14.5 km/h 92 % 0.00 in /  0 mm 0 W/m2
03:35 34.9 °F /  1.6 °C 32.8 °F /  0.4 °C 30.36 in /  1028 hPa North 6.0 mph /  9.7 km/h 9.0 mph /  14.5 km/h 92 % 0.00 in /  0 mm 0 W/m2
03:41 34.9 °F /  1.6 °C 32.8 °F /  0.4 °C 30.36 in /  1028 hPa NNW 6.0 mph /  9.7 km/h 9.0 mph /  14.5 km/h 92 % 0.00 in /  0 mm 0 W/m2
03:46 34.9 °F /  1.6 °C 32.8 °F /  0.4 °C 30.36 in /  1028 hPa NNW 4.0 mph /  6.4 km/h 8.0 mph /  12.9 km/h 92 % 0.00 in /  0 mm 0 W/m2
03:51 34.7 °F /  1.5 °C 32.6 °F /  0.3 °C 30.36 in /  1028 hPa NNW 5.0 mph /  8 km/h 10.0 mph /  16.1 km/h 92 % 0.00 in /  0 mm 0 W/m2
03:54 34.5 °F /  1.4 °C 32.4 °F /  0.2 °C 30.36 in /  1028 hPa North 4.0 mph /  6.4 km/h 8.0 mph /  12.9 km/h 92 % 0.00 in /  0 mm 0 W/m2
03:59 34.5 °F /  1.4 °C 32.4 °F /  0.2 °C 30.36 in /  1028 hPa NNW 4.0 mph /  6.4 km/h 6.0 mph /  9.7 km/h 92 % 0.00 in /  0 mm 0 W/m2
04:02 34.3 °F /  1.3 °C 32.3 °F /  0.2 °C 30.36 in /  1028 hPa NNW 4.0 mph /  6.4 km/h 8.0 mph /  12.9 km/h 92 % 0.00 in /  0 mm 0 W/m2
04:07 34.3 °F /  1.3 °C 32.3 °F /  0.2 °C 30.36 in /  1028 hPa NNW 5.0 mph /  8 km/h 8.0 mph /  12.9 km/h 92 % 0.00 in /  0 mm 0 W/m2
04:12 34.2 °F /  1.2 °C 32.1 °F /  0.1 °C 30.36 in /  1028 hPa NNW 4.0 mph /  6.4 km/h 8.0 mph /  12.9 km/h 92 % 0.00 in /  0 mm 0 W/m2
04:14 34.2 °F /  1.2 °C 32.1 °F /  0.1 °C 30.37 in /  1028.3 hPa NNW 3.0 mph /  4.8 km/h 8.0 mph /  12.9 km/h 92 % 0.00 in /  0 mm 0 W/m2
04:19 34.2 °F /  1.2 °C 32.1 °F /  0.1 °C 30.36 in /  1028 hPa NNW 4.0 mph /  6.4 km/h 7.0 mph /  11.3 km/h 92 % 0.00 in /  0 mm 0 W/m2
04:24 34.0 °F /  1.1 °C 31.9 °F /  -0.1 °C 30.36 in /  1028 hPa NNW 5.0 mph /  8 km/h 8.0 mph /  12.9 km/h 92 % 0.00 in /  0 mm 0 W/m2
04:29 34.0 °F /  1.1 °C 31.9 °F /  -0.1 °C 30.36 in /  1028 hPa North 4.0 mph /  6.4 km/h 8.0 mph /  12.9 km/h 92 % 0.00 in /  0 mm 0 W/m2
04:30 34.0 °F /  1.1 °C 31.9 °F /  -0.1 °C 30.36 in /  1028 hPa North 4.0 mph /  6.4 km/h 7.0 mph /  11.3 km/h 92 % 0.00 in /  0 mm 0 W/m2
04:35 34.0 °F /  1.1 °C 31.9 °F /  -0.1 °C 30.36 in /  1028 hPa North 4.0 mph /  6.4 km/h 8.0 mph /  12.9 km/h 92 % 0.00 in /  0 mm 0 W/m2
04:37 34.0 °F /  1.1 °C 32.2 °F /  0.1 °C 30.37 in /  1028.3 hPa North 5.0 mph /  8 km/h 8.0 mph /  12.9 km/h 93 % 0.00 in /  0 mm 0 W/m2
04:42 34.2 °F /  1.2 °C 32.3 °F /  0.2 °C 30.37 in /  1028.3 hPa NE 5.0 mph /  8 km/h 8.0 mph /  12.9 km/h 93 % 0.00 in /  0 mm 0 W/m2
04:46 34.3 °F /  1.3 °C 32.5 °F /  0.3 °C 30.37 in /  1028.3 hPa North 5.0 mph /  8 km/h 8.0 mph /  12.9 km/h 93 % 0.00 in /  0 mm 0 W/m2
04:51 34.3 °F /  1.3 °C 32.5 °F /  0.3 °C 30.37 in /  1028.3 hPa NNE 3.0 mph /  4.8 km/h 7.0 mph /  11.3 km/h 93 % 0.00 in /  0 mm 0 W/m2
04:56 34.5 °F /  1.4 °C 32.7 °F /  0.4 °C 30.37 in /  1028.3 hPa NNE 6.0 mph /  9.7 km/h 10.0 mph /  16.1 km/h 93 % 0.00 in /  0 mm 0 W/m2
04:57 34.5 °F /  1.4 °C 32.7 °F /  0.4 °C 30.37 in /  1028.3 hPa NNE 5.0 mph /  8 km/h 10.0 mph /  16.1 km/h 93 % 0.00 in /  0 mm 0 W/m2
05:02 34.5 °F /  1.4 °C 32.4 °F /  0.2 °C 30.37 in /  1028.3 hPa North 5.0 mph /  8 km/h 8.0 mph /  12.9 km/h 92 % 0.00 in /  0 mm 0 W/m2
05:07 34.7 °F /  1.5 °C 32.6 °F /  0.3 °C 30.38 in /  1028.7 hPa North 6.0 mph /  9.7 km/h 9.0 mph /  14.5 km/h 92 % 0.00 in /  0 mm 0 W/m2
05:08 34.7 °F /  1.5 °C 32.6 °F /  0.3 °C 30.38 in /  1028.7 hPa North 6.0 mph /  9.7 km/h 10.0 mph /  16.1 km/h 92 % 0.00 in /  0 mm 0 W/m2
05:09 34.7 °F /  1.5 °C 32.6 °F /  0.3 °C 30.38 in /  1028.7 hPa North 7.0 mph /  11.3 km/h 10.0 mph /  16.1 km/h 92 % 0.00 in /  0 mm 0 W/m2
05:14 34.7 °F /  1.5 °C 32.6 °F /  0.3 °C 30.38 in /  1028.7 hPa NNE 6.0 mph /  9.7 km/h 9.0 mph /  14.5 km/h 92 % 0.00 in /  0 mm 0 W/m2
05:15 34.7 °F /  1.5 °C 32.6 °F /  0.3 °C 30.38 in /  1028.7 hPa NNE 4.0 mph /  6.4 km/h 9.0 mph /  14.5 km/h 92 % 0.00 in /  0 mm 0 W/m2
05:20 34.9 °F /  1.6 °C 32.8 °F /  0.4 °C 30.38 in /  1028.7 hPa North 5.0 mph /  8 km/h 8.0 mph /  12.9 km/h 92 % 0.00 in /  0 mm 0 W/m2
05:23 34.9 °F /  1.6 °C 32.8 °F /  0.4 °C 30.38 in /  1028.7 hPa North 4.0 mph /  6.4 km/h 9.0 mph /  14.5 km/h 92 % 0.00 in /  0 mm 0 W/m2
05:28 34.7 °F /  1.5 °C 32.6 °F /  0.3 °C 30.38 in /  1028.7 hPa North 5.0 mph /  8 km/h 9.0 mph /  14.5 km/h 92 % 0.00 in /  0 mm 0 W/m2
05:33 34.5 °F /  1.4 °C 32.4 °F /  0.2 °C 30.38 in /  1028.7 hPa North 7.0 mph /  11.3 km/h 10.0 mph /  16.1 km/h 92 % 0.00 in /  0 mm 0 W/m2
05:38 34.5 °F /  1.4 °C 32.4 °F /  0.2 °C 30.39 in /  1029 hPa North 5.0 mph /  8 km/h 9.0 mph /  14.5 km/h 92 % 0.00 in /  0 mm 0 W/m2
05:40 34.5 °F /  1.4 °C 32.4 °F /  0.2 °C 30.39 in /  1029 hPa NNE 5.0 mph /  8 km/h 9.0 mph /  14.5 km/h 92 % 0.00 in /  0 mm 0 W/m2
05:43 34.5 °F /  1.4 °C 32.4 °F /  0.2 °C 30.39 in /  1029 hPa North 4.0 mph /  6.4 km/h 8.0 mph /  12.9 km/h 92 % 0.00 in /  0 mm 0 W/m2
05:48 34.3 °F /  1.3 °C 32.3 °F /  0.2 °C 30.39 in /  1029 hPa North 6.0 mph /  9.7 km/h 9.0 mph /  14.5 km/h 92 % 0.00 in /  0 mm 0 W/m2
05:53 34.3 °F /  1.3 °C 32.3 °F /  0.2 °C 30.39 in /  1029 hPa North 6.0 mph /  9.7 km/h 9.0 mph /  14.5 km/h 92 % 0.00 in /  0 mm 0 W/m2
05:58 34.2 °F /  1.2 °C 32.1 °F /  0.1 °C 30.39 in /  1029 hPa North 7.0 mph /  11.3 km/h 9.0 mph /  14.5 km/h 92 % 0.00 in /  0 mm 0 W/m2
06:02 34.3 °F /  1.3 °C 32.3 °F /  0.2 °C 30.39 in /  1029 hPa North 7.0 mph /  11.3 km/h 10.0 mph /  16.1 km/h 92 % 0.00 in /  0 mm 0 W/m2
06:08 34.3 °F /  1.3 °C 32.5 °F /  0.3 °C 30.40 in /  1029.3 hPa NNE 6.0 mph /  9.7 km/h 10.0 mph /  16.1 km/h 93 % 0.00 in /  0 mm 0 W/m2
06:09 34.3 °F /  1.3 °C 32.5 °F /  0.3 °C 30.40 in /  1029.3 hPa NNE 5.0 mph /  8 km/h 8.0 mph /  12.9 km/h 93 % 0.00 in /  0 mm 0 W/m2
06:14 34.3 °F /  1.3 °C 32.3 °F /  0.2 °C 30.40 in /  1029.3 hPa North 5.0 mph /  8 km/h 9.0 mph /  14.5 km/h 92 % 0.00 in /  0 mm 0 W/m2
06:19 34.3 °F /  1.3 °C 32.3 °F /  0.2 °C 30.40 in /  1029.3 hPa North 7.0 mph /  11.3 km/h 10.0 mph /  16.1 km/h 92 % 0.00 in /  0 mm 0 W/m2
06:25 34.3 °F /  1.3 °C 32.3 °F /  0.2 °C 30.41 in /  1029.7 hPa North 5.0 mph /  8 km/h 8.0 mph /  12.9 km/h 92 % 0.00 in /  0 mm 0 W/m2
06:28 34.3 °F /  1.3 °C 32.3 °F /  0.2 °C 30.41 in /  1029.7 hPa North 6.0 mph /  9.7 km/h 9.0 mph /  14.5 km/h 92 % 0.00 in /  0 mm 0 W/m2
06:34 34.3 °F /  1.3 °C 32.3 °F /  0.2 °C 30.41 in /  1029.7 hPa North 6.0 mph /  9.7 km/h 9.0 mph /  14.5 km/h 92 % 0.00 in /  0 mm 0 W/m2
06:39 34.3 °F /  1.3 °C 32.3 °F /  0.2 °C 30.41 in /  1029.7 hPa North 6.0 mph /  9.7 km/h 10.0 mph /  16.1 km/h 92 % 0.00 in /  0 mm 0 W/m2
06:44 34.3 °F /  1.3 °C 32.3 °F /  0.2 °C 30.41 in /  1029.7 hPa North 6.0 mph /  9.7 km/h 9.0 mph /  14.5 km/h 92 % 0.00 in /  0 mm 0 W/m2
06:49 34.3 °F /  1.3 °C 32.3 °F /  0.2 °C 30.41 in /  1029.7 hPa North 5.0 mph /  8 km/h 8.0 mph /  12.9 km/h 92 % 0.00 in /  0 mm 0 W/m2
06:53 34.3 °F /  1.3 °C 32.3 °F /  0.2 °C 30.41 in /  1029.7 hPa North 3.0 mph /  4.8 km/h 7.0 mph /  11.3 km/h 92 % 0.00 in /  0 mm 0 W/m2
06:58 34.3 °F /  1.3 °C 32.5 °F /  0.3 °C 30.42 in /  1030 hPa NNE 2.0 mph /  3.2 km/h 6.0 mph /  9.7 km/h 93 % 0.00 in /  0 mm 0 W/m2
07:01 34.3 °F /  1.3 °C 32.5 °F /  0.3 °C 30.42 in /  1030 hPa NE 1.0 mph /  1.6 km/h 6.0 mph /  9.7 km/h 93 % 0.00 in /  0 mm 0 W/m2
07:07 34.3 °F /  1.3 °C 32.5 °F /  0.3 °C 30.42 in /  1030 hPa NE 2.0 mph /  3.2 km/h 6.0 mph /  9.7 km/h 93 % 0.00 in /  0 mm 0 W/m2
07:13 34.3 °F /  1.3 °C 32.5 °F /  0.3 °C 30.42 in /  1030 hPa NW 1.0 mph /  1.6 km/h 4.0 mph /  6.4 km/h 93 % 0.00 in /  0 mm 0 W/m2
07:16 34.3 °F /  1.3 °C 32.5 °F /  0.3 °C 30.42 in /  1030 hPa NNE 3.0 mph /  4.8 km/h 6.0 mph /  9.7 km/h 93 % 0.00 in /  0 mm 0 W/m2
07:21 34.3 °F /  1.3 °C 32.5 °F /  0.3 °C 30.42 in /  1030 hPa NNE 1.0 mph /  1.6 km/h 4.0 mph /  6.4 km/h 93 % 0.00 in /  0 mm 0 W/m2
07:25 34.3 °F /  1.3 °C 32.5 °F /  0.3 °C 30.43 in /  1030.4 hPa Calm   2.0 mph /  3.2 km/h 93 % 0.00 in /  0 mm 0 W/m2
07:30 34.3 °F /  1.3 °C 32.5 °F /  0.3 °C 30.43 in /  1030.4 hPa NE 2.0 mph /  3.2 km/h 6.0 mph /  9.7 km/h 93 % 0.00 in /  0 mm 0 W/m2
07:35 34.5 °F /  1.4 °C 32.7 °F /  0.4 °C 30.43 in /  1030.4 hPa Calm   1.0 mph /  1.6 km/h 93 % 0.00 in /  0 mm 0 W/m2
07:40 34.3 °F /  1.3 °C 32.5 °F /  0.3 °C 30.43 in /  1030.4 hPa Calm   2.0 mph /  3.2 km/h 93 % 0.00 in /  0 mm 0 W/m2
07:45 34.3 °F /  1.3 °C 32.5 °F /  0.3 °C 30.43 in /  1030.4 hPa North 1.0 mph /  1.6 km/h 4.0 mph /  6.4 km/h 93 % 0.00 in /  0 mm 0 W/m2
07:50 34.3 °F /  1.3 °C 32.5 °F /  0.3 °C 30.44 in /  1030.7 hPa North 1.0 mph /  1.6 km/h 2.0 mph /  3.2 km/h 93 % 0.00 in /  0 mm 0 W/m2
07:55 34.3 °F /  1.3 °C 32.3 °F /  0.2 °C 30.44 in /  1030.7 hPa North 2.0 mph /  3.2 km/h 6.0 mph /  9.7 km/h 92 % 0.00 in /  0 mm 0 W/m2
08:00 34.3 °F /  1.3 °C 32.5 °F /  0.3 °C 30.44 in /  1030.7 hPa NNE 3.0 mph /  4.8 km/h 6.0 mph /  9.7 km/h 93 % 0.00 in /  0 mm 0 W/m2
08:05 34.3 °F /  1.3 °C 32.5 °F /  0.3 °C 30.44 in /  1030.7 hPa NNE 2.0 mph /  3.2 km/h 6.0 mph /  9.7 km/h 93 % 0.00 in /  0 mm 0 W/m2
08:09 34.2 °F /  1.2 °C 32.1 °F /  0.1 °C 30.44 in /  1030.7 hPa NE 2.0 mph /  3.2 km/h 6.0 mph /  9.7 km/h 92 % 0.00 in /  0 mm 0 W/m2
08:11 34.2 °F /  1.2 °C 32.3 °F /  0.2 °C 30.44 in /  1030.7 hPa NNE 3.0 mph /  4.8 km/h 6.0 mph /  9.7 km/h 93 % 0.00 in /  0 mm 0 W/m2
08:16 34.2 °F /  1.2 °C 32.3 °F /  0.2 °C 30.45 in /  1031 hPa NNE 1.0 mph /  1.6 km/h 4.0 mph /  6.4 km/h 93 % 0.00 in /  0 mm 5 W/m2
08:21 34.0 °F /  1.1 °C 31.9 °F /  -0.1 °C 30.45 in /  1031 hPa Calm   4.0 mph /  6.4 km/h 92 % 0.00 in /  0 mm 5 W/m2
08:25 33.8 °F /  1 °C 32.0 °F /  0 °C 30.45 in /  1031 hPa NNE 1.0 mph /  1.6 km/h 5.0 mph /  8 km/h 93 % 0.00 in /  0 mm 7 W/m2
08:30 33.8 °F /  1 °C 32.0 °F /  0 °C 30.44 in /  1030.7 hPa NNE 3.0 mph /  4.8 km/h 6.0 mph /  9.7 km/h 93 % 0.00 in /  0 mm 9 W/m2
08:34 33.8 °F /  1 °C 32.0 °F /  0 °C 30.45 in /  1031 hPa Calm   2.0 mph /  3.2 km/h 93 % 0.00 in /  0 mm 11 W/m2
08:39 33.8 °F /  1 °C 32.0 °F /  0 °C 30.45 in /  1031 hPa NE 3.0 mph /  4.8 km/h 10.0 mph /  16.1 km/h 93 % 0.00 in /  0 mm 12 W/m2
08:44 34.0 °F /  1.1 °C 32.2 °F /  0.1 °C 30.46 in /  1031.4 hPa NNE 2.0 mph /  3.2 km/h 6.0 mph /  9.7 km/h 93 % 0.00 in /  0 mm 14 W/m2
08:49 34.0 °F /  1.1 °C 32.2 °F /  0.1 °C 30.46 in /  1031.4 hPa NNE 3.0 mph /  4.8 km/h 6.0 mph /  9.7 km/h 93 % 0.00 in /  0 mm 16 W/m2
08:50 34.0 °F /  1.1 °C 32.2 °F /  0.1 °C 30.46 in /  1031.4 hPa NNE 3.0 mph /  4.8 km/h 6.0 mph /  9.7 km/h 93 % 0.00 in /  0 mm 16 W/m2
08:55 34.0 °F /  1.1 °C 32.2 °F /  0.1 °C 30.46 in /  1031.4 hPa NNE 3.0 mph /  4.8 km/h 6.0 mph /  9.7 km/h 93 % 0.00 in /  0 mm 18 W/m2
09:00 34.0 °F /  1.1 °C 32.2 °F /  0.1 °C 30.46 in /  1031.4 hPa Calm     93 % 0.00 in /  0 mm 19 W/m2
09:02 33.8 °F /  1 °C 32.0 °F /  0 °C 30.46 in /  1031.4 hPa Calm   1.0 mph /  1.6 km/h 93 % 0.00 in /  0 mm 19 W/m2
09:07 33.4 °F /  0.8 °C 31.4 °F /  -0.3 °C 30.46 in /  1031.4 hPa NE 1.0 mph /  1.6 km/h 6.0 mph /  9.7 km/h 92 % 0.00 in /  0 mm 21 W/m2
09:12 33.4 °F /  0.8 °C 31.6 °F /  -0.2 °C 30.47 in /  1031.7 hPa NE 1.0 mph /  1.6 km/h 5.0 mph /  8 km/h 93 % 0.00 in /  0 mm 23 W/m2
09:17 33.4 °F /  0.8 °C 31.6 °F /  -0.2 °C 30.47 in /  1031.7 hPa NNE 1.0 mph /  1.6 km/h 5.0 mph /  8 km/h 93 % 0.00 in /  0 mm 23 W/m2
09:19 33.6 °F /  0.9 °C 31.8 °F /  -0.1 °C 30.47 in /  1031.7 hPa NE 4.0 mph /  6.4 km/h 8.0 mph /  12.9 km/h 93 % 0.00 in /  0 mm 25 W/m2
09:24 33.8 °F /  1 °C 32.0 °F /  0 °C 30.47 in /  1031.7 hPa Calm   4.0 mph /  6.4 km/h 93 % 0.00 in /  0 mm 28 W/m2
09:26 33.8 °F /  1 °C 32.0 °F /  0 °C 30.47 in /  1031.7 hPa Calm     93 % 0.00 in /  0 mm 28 W/m2
09:31 34.0 °F /  1.1 °C 32.2 °F /  0.1 °C 30.47 in /  1031.7 hPa NE 3.0 mph /  4.8 km/h 6.0 mph /  9.7 km/h 93 % 0.00 in /  0 mm 120 W/m2
09:35 34.2 °F /  1.2 °C 32.6 °F /  0.3 °C 30.47 in /  1031.7 hPa NNE 3.0 mph /  4.8 km/h 9.0 mph /  14.5 km/h 94 % 0.00 in /  0 mm 125 W/m2
09:40 34.3 °F /  1.3 °C 32.8 °F /  0.4 °C 30.47 in /  1031.7 hPa NNE 3.0 mph /  4.8 km/h 7.0 mph /  11.3 km/h 94 % 0.00 in /  0 mm 144 W/m2
09:41 34.5 °F /  1.4 °C 33.0 °F /  0.6 °C 30.47 in /  1031.7 hPa NNE 4.0 mph /  6.4 km/h 8.0 mph /  12.9 km/h 94 % 0.00 in /  0 mm 144 W/m2
09:46 34.9 °F /  1.6 °C 33.1 °F /  0.6 °C 30.48 in /  1032.1 hPa North 4.0 mph /  6.4 km/h 9.0 mph /  14.5 km/h 93 % 0.00 in /  0 mm 141 W/m2
09:48 35.1 °F /  1.7 °C 33.2 °F /  0.7 °C 30.48 in /  1032.1 hPa NE 5.0 mph /  8 km/h 9.0 mph /  14.5 km/h 93 % 0.00 in /  0 mm 144 W/m2
09:53 35.4 °F /  1.9 °C 33.6 °F /  0.9 °C 30.48 in /  1032.1 hPa ENE 2.0 mph /  3.2 km/h 7.0 mph /  11.3 km/h 93 % 0.00 in /  0 mm 151 W/m2
09:54 35.4 °F /  1.9 °C 33.6 °F /  0.9 °C 30.48 in /  1032.1 hPa ENE 2.0 mph /  3.2 km/h 7.0 mph /  11.3 km/h 93 % 0.00 in /  0 mm 151 W/m2
09:59 35.6 °F /  2 °C 33.5 °F /  0.8 °C 30.48 in /  1032.1 hPa NNE 4.0 mph /  6.4 km/h 8.0 mph /  12.9 km/h 92 % 0.00 in /  0 mm 156 W/m2
10:03 35.8 °F /  2.1 °C 33.7 °F /  0.9 °C 30.48 in /  1032.1 hPa NNE 4.0 mph /  6.4 km/h 9.0 mph /  14.5 km/h 92 % 0.00 in /  0 mm 162 W/m2
10:08 36.0 °F /  2.2 °C 33.6 °F /  0.9 °C 30.48 in /  1032.1 hPa North 3.0 mph /  4.8 km/h 7.0 mph /  11.3 km/h 91 % 0.00 in /  0 mm 171 W/m2
10:09 36.0 °F /  2.2 °C 33.6 °F /  0.9 °C 30.48 in /  1032.1 hPa North 4.0 mph /  6.4 km/h 7.0 mph /  11.3 km/h 91 % 0.00 in /  0 mm 172 W/m2
10:14 36.1 °F /  2.3 °C 33.8 °F /  1 °C 30.49 in /  1032.4 hPa NNE 4.0 mph /  6.4 km/h 7.0 mph /  11.3 km/h 91 % 0.00 in /  0 mm 179 W/m2
10:15 36.1 °F /  2.3 °C 33.8 °F /  1 °C 30.49 in /  1032.4 hPa NNE 4.0 mph /  6.4 km/h 7.0 mph /  11.3 km/h 91 % 0.00 in /  0 mm 181 W/m2
10:20 36.1 °F /  2.3 °C 33.5 °F /  0.8 °C 30.49 in /  1032.4 hPa NNE 5.0 mph /  8 km/h 8.0 mph /  12.9 km/h 90 % 0.00 in /  0 mm 186 W/m2
10:21 36.3 °F /  2.4 °C 33.7 °F /  0.9 °C 30.49 in /  1032.4 hPa NNE 3.0 mph /  4.8 km/h 7.0 mph /  11.3 km/h 90 % 0.00 in /  0 mm 188 W/m2
10:26 36.5 °F /  2.5 °C 33.8 °F /  1 °C 30.49 in /  1032.4 hPa NE 4.0 mph /  6.4 km/h 9.0 mph /  14.5 km/h 90 % 0.00 in /  0 mm 197 W/m2
10:32 36.7 °F /  2.6 °C 34.0 °F /  1.1 °C 30.49 in /  1032.4 hPa NNE 5.0 mph /  8 km/h 9.0 mph /  14.5 km/h 90 % 0.00 in /  0 mm 200 W/m2
10:37 36.9 °F /  2.7 °C 34.2 °F /  1.2 °C 30.49 in /  1032.4 hPa NNE 2.0 mph /  3.2 km/h 7.0 mph /  11.3 km/h 90 % 0.00 in /  0 mm 207 W/m2
10:42 37.0 °F /  2.8 °C 34.1 °F /  1.2 °C 30.49 in /  1032.4 hPa NNE 1.0 mph /  1.6 km/h 7.0 mph /  11.3 km/h 89 % 0.00 in /  0 mm 211 W/m2
10:43 37.0 °F /  2.8 °C 34.1 °F /  1.2 °C 30.49 in /  1032.4 hPa NNE 2.0 mph /  3.2 km/h 6.0 mph /  9.7 km/h 89 % 0.00 in /  0 mm 213 W/m2
10:48 37.4 °F /  3 °C 34.5 °F /  1.4 °C 30.49 in /  1032.4 hPa NE 4.0 mph /  6.4 km/h 10.0 mph /  16.1 km/h 89 % 0.00 in /  0 mm 220 W/m2
10:53 37.6 °F /  3.1 °C 34.1 °F /  1.2 °C 30.49 in /  1032.4 hPa NE 5.0 mph /  8 km/h 9.0 mph /  14.5 km/h 87 % 0.00 in /  0 mm 225 W/m2
10:58 37.8 °F /  3.2 °C 33.9 °F /  1.1 °C 30.49 in /  1032.4 hPa NE 6.0 mph /  9.7 km/h 9.0 mph /  14.5 km/h 86 % 0.00 in /  0 mm 230 W/m2
11:00 37.8 °F /  3.2 °C 33.9 °F /  1.1 °C 30.49 in /  1032.4 hPa NE 7.0 mph /  11.3 km/h 12.0 mph /  19.3 km/h 86 % 0.00 in /  0 mm 230 W/m2
11:05 37.9 °F /  3.3 °C 33.8 °F /  1 °C 30.49 in /  1032.4 hPa NE 6.0 mph /  9.7 km/h 9.0 mph /  14.5 km/h 85 % 0.00 in /  0 mm 234 W/m2
11:10 37.9 °F /  3.3 °C 33.8 °F /  1 °C 30.49 in /  1032.4 hPa NE 5.0 mph /  8 km/h 10.0 mph /  16.1 km/h 85 % 0.00 in /  0 mm 237 W/m2
11:15 38.1 °F /  3.4 °C 34.0 °F /  1.1 °C 30.49 in /  1032.4 hPa ENE 2.0 mph /  3.2 km/h 8.0 mph /  12.9 km/h 85 % 0.00 in /  0 mm 241 W/m2
11:20 38.5 °F /  3.6 °C 34.1 °F /  1.2 °C 30.48 in /  1032.1 hPa NE 3.0 mph /  4.8 km/h 8.0 mph /  12.9 km/h 84 % 0.00 in /  0 mm 246 W/m2
11:21 38.7 °F /  3.7 °C 34.2 °F /  1.2 °C 30.48 in /  1032.1 hPa NE 2.0 mph /  3.2 km/h 7.0 mph /  11.3 km/h 84 % 0.00 in /  0 mm 248 W/m2
11:26 38.8 °F /  3.8 °C 34.1 °F /  1.2 °C 30.48 in /  1032.1 hPa ENE 5.0 mph /  8 km/h 8.0 mph /  12.9 km/h 83 % 0.00 in /  0 mm 250 W/m2
11:29 39.0 °F /  3.9 °C 34.3 °F /  1.3 °C 30.48 in /  1032.1 hPa NE 4.0 mph /  6.4 km/h 7.0 mph /  11.3 km/h 83 % 0.00 in /  0 mm 251 W/m2
11:34 39.2 °F /  4 °C 34.2 °F /  1.2 °C 30.48 in /  1032.1 hPa NE 5.0 mph /  8 km/h 8.0 mph /  12.9 km/h 82 % 0.00 in /  0 mm 255 W/m2
11:39 39.4 °F /  4.1 °C 34.0 °F /  1.1 °C 30.48 in /  1032.1 hPa NE 5.0 mph /  8 km/h 10.0 mph /  16.1 km/h 81 % 0.00 in /  0 mm 258 W/m2
11:41 39.4 °F /  4.1 °C 34.0 °F /  1.1 °C 30.48 in /  1032.1 hPa NE 5.0 mph /  8 km/h 8.0 mph /  12.9 km/h 81 % 0.00 in /  0 mm 258 W/m2
11:46 39.6 °F /  4.2 °C 33.9 °F /  1.1 °C 30.48 in /  1032.1 hPa NE 6.0 mph /  9.7 km/h 9.0 mph /  14.5 km/h 80 % 0.00 in /  0 mm 258 W/m2
11:47 39.6 °F /  4.2 °C 33.9 °F /  1.1 °C 30.48 in /  1032.1 hPa NE 6.0 mph /  9.7 km/h 9.0 mph /  14.5 km/h 80 % 0.00 in /  0 mm 258 W/m2
11:52 39.7 °F /  4.3 °C 34.1 °F /  1.2 °C 30.48 in /  1032.1 hPa NE 3.0 mph /  4.8 km/h 11.0 mph /  17.7 km/h 80 % 0.00 in /  0 mm 260 W/m2
11:53 39.7 °F /  4.3 °C 33.8 °F /  1 °C 30.48 in /  1032.1 hPa NNE 6.0 mph /  9.7 km/h 11.0 mph /  17.7 km/h 79 % 0.00 in /  0 mm 262 W/m2
11:58 39.9 °F /  4.4 °C 33.9 °F /  1.1 °C 30.47 in /  1031.7 hPa ENE 5.0 mph /  8 km/h 8.0 mph /  12.9 km/h 79 % 0.00 in /  0 mm 262 W/m2
12:03 40.3 °F /  4.6 °C 34.0 °F /  1.1 °C 30.47 in /  1031.7 hPa ENE 4.0 mph /  6.4 km/h 7.0 mph /  11.3 km/h 78 % 0.00 in /  0 mm 264 W/m2
12:08 40.5 °F /  4.7 °C 33.8 °F /  1 °C 30.47 in /  1031.7 hPa ENE 6.0 mph /  9.7 km/h 11.0 mph /  17.7 km/h 77 % 0.00 in /  0 mm 264 W/m2
12:13 40.5 °F /  4.7 °C 33.8 °F /  1 °C 30.47 in /  1031.7 hPa ENE 7.0 mph /  11.3 km/h 12.0 mph /  19.3 km/h 77 % 0.00 in /  0 mm 264 W/m2
12:17 40.5 °F /  4.7 °C 33.8 °F /  1 °C 30.47 in /  1031.7 hPa ENE 6.0 mph /  9.7 km/h 9.0 mph /  14.5 km/h 77 % 0.00 in /  0 mm 264 W/m2
12:22 40.6 °F /  4.8 °C 33.7 °F /  0.9 °C 30.47 in /  1031.7 hPa ENE 8.0 mph /  12.9 km/h 12.0 mph /  19.3 km/h 76 % 0.00 in /  0 mm 264 W/m2
12:24 40.6 °F /  4.8 °C 33.7 °F /  0.9 °C 30.47 in /  1031.7 hPa ENE 5.0 mph /  8 km/h 12.0 mph /  19.3 km/h 76 % 0.00 in /  0 mm 264 W/m2
12:29 40.8 °F /  4.9 °C 33.8 °F /  1 °C 30.47 in /  1031.7 hPa ENE 2.0 mph /  3.2 km/h 6.0 mph /  9.7 km/h 76 % 0.00 in /  0 mm 258 W/m2
12:34 41.2 °F /  5.1 °C 33.9 °F /  1.1 °C 30.47 in /  1031.7 hPa East 5.0 mph /  8 km/h 7.0 mph /  11.3 km/h 75 % 0.00 in /  0 mm 260 W/m2
12:39 41.2 °F /  5.1 °C 33.5 °F /  0.8 °C 30.47 in /  1031.7 hPa ENE 6.0 mph /  9.7 km/h 11.0 mph /  17.7 km/h 74 % 0.00 in /  0 mm 258 W/m2
12:40 41.2 °F /  5.1 °C 33.5 °F /  0.8 °C 30.47 in /  1031.7 hPa ENE 6.0 mph /  9.7 km/h 11.0 mph /  17.7 km/h 74 % 0.00 in /  0 mm 257 W/m2
12:45 41.4 °F /  5.2 °C 33.7 °F /  0.9 °C 30.47 in /  1031.7 hPa East 5.0 mph /  8 km/h 9.0 mph /  14.5 km/h 74 % 0.00 in /  0 mm 255 W/m2
12:51 41.4 °F /  5.2 °C 33.7 °F /  0.9 °C 30.47 in /  1031.7 hPa ENE 5.0 mph /  8 km/h 11.0 mph /  17.7 km/h 74 % 0.00 in /  0 mm 251 W/m2
12:52 41.4 °F /  5.2 °C 33.7 °F /  0.9 °C 30.47 in /  1031.7 hPa East 4.0 mph /  6.4 km/h 10.0 mph /  16.1 km/h 74 % 0.00 in /  0 mm 253 W/m2
12:57 41.4 °F /  5.2 °C 33.4 °F /  0.8 °C 30.47 in /  1031.7 hPa East 6.0 mph /  9.7 km/h 10.0 mph /  16.1 km/h 73 % 0.00 in /  0 mm 250 W/m2
13:02 41.4 °F /  5.2 °C 33.7 °F /  0.9 °C 30.46 in /  1031.4 hPa East 5.0 mph /  8 km/h 9.0 mph /  14.5 km/h 74 % 0.00 in /  0 mm 248 W/m2
13:07 41.4 °F /  5.2 °C 33.4 °F /  0.8 °C 30.46 in /  1031.4 hPa ENE 7.0 mph /  11.3 km/h 10.0 mph /  16.1 km/h 73 % 0.00 in /  0 mm 244 W/m2
13:12 41.4 °F /  5.2 °C 33.7 °F /  0.9 °C 30.46 in /  1031.4 hPa ENE 6.0 mph /  9.7 km/h 9.0 mph /  14.5 km/h 74 % 0.00 in /  0 mm 241 W/m2
13:17 41.4 °F /  5.2 °C 33.4 °F /  0.8 °C 30.45 in /  1031 hPa ENE 6.0 mph /  9.7 km/h 13.0 mph /  20.9 km/h 73 % 0.00 in /  0 mm 237 W/m2
13:22 41.4 °F /  5.2 °C 33.4 °F /  0.8 °C 30.45 in /  1031 hPa ENE 6.0 mph /  9.7 km/h 9.0 mph /  14.5 km/h 73 % 0.00 in /  0 mm 230 W/m2
13:27 41.4 °F /  5.2 °C 33.4 °F /  0.8 °C 30.45 in /  1031 hPa ENE 7.0 mph /  11.3 km/h 11.0 mph /  17.7 km/h 73 % 0.00 in /  0 mm 227 W/m2
13:29 41.4 °F /  5.2 °C 33.4 °F /  0.8 °C 30.45 in /  1031 hPa ENE 7.0 mph /  11.3 km/h 11.0 mph /  17.7 km/h 73 % 0.00 in /  0 mm 227 W/m2
13:32 41.4 °F /  5.2 °C 33.4 °F /  0.8 °C 30.45 in /  1031 hPa ENE 7.0 mph /  11.3 km/h 15.0 mph /  24.1 km/h 73 % 0.00 in /  0 mm 221 W/m2
13:37 41.2 °F /  5.1 °C 33.2 °F /  0.7 °C 30.45 in /  1031 hPa ENE 6.0 mph /  9.7 km/h 9.0 mph /  14.5 km/h 73 % 0.00 in /  0 mm 214 W/m2
13:42 41.2 °F /  5.1 °C 33.5 °F /  0.8 °C 30.45 in /  1031 hPa ENE 6.0 mph /  9.7 km/h 10.0 mph /  16.1 km/h 74 % 0.00 in /  0 mm 209 W/m2
13:47 41.2 °F /  5.1 °C 33.5 °F /  0.8 °C 30.45 in /  1031 hPa ENE 6.0 mph /  9.7 km/h 10.0 mph /  16.1 km/h 74 % 0.00 in /  0 mm 204 W/m2
13:52 41.2 °F /  5.1 °C 33.5 °F /  0.8 °C 30.45 in /  1031 hPa ENE 6.0 mph /  9.7 km/h 11.0 mph /  17.7 km/h 74 % 0.00 in /  0 mm 199 W/m2
13:56 41.2 °F /  5.1 °C 33.9 °F /  1.1 °C 30.45 in /  1031 hPa East 5.0 mph /  8 km/h 10.0 mph /  16.1 km/h 75 % 0.00 in /  0 mm 193 W/m2
14:01 41.4 °F /  5.2 °C 34.0 °F /  1.1 °C 30.45 in /  1031 hPa East 6.0 mph /  9.7 km/h 13.0 mph /  20.9 km/h 75 % 0.00 in /  0 mm 188 W/m2
14:06 41.2 °F /  5.1 °C 33.5 °F /  0.8 °C 30.45 in /  1031 hPa ENE 6.0 mph /  9.7 km/h 11.0 mph /  17.7 km/h 74 % 0.00 in /  0 mm 181 W/m2
14:11 40.8 °F /  4.9 °C 33.5 °F /  0.8 °C 30.45 in /  1031 hPa ENE 5.0 mph /  8 km/h 11.0 mph /  17.7 km/h 75 % 0.00 in /  0 mm 179 W/m2
14:16 40.8 °F /  4.9 °C 33.8 °F /  1 °C 30.45 in /  1031 hPa ENE 6.0 mph /  9.7 km/h 12.0 mph /  19.3 km/h 76 % 0.00 in /  0 mm 163 W/m2
14:21 40.6 °F /  4.8 °C 33.7 °F /  0.9 °C 30.45 in /  1031 hPa ENE 5.0 mph /  8 km/h 8.0 mph /  12.9 km/h 76 % 0.00 in /  0 mm 162 W/m2
14:26 40.6 °F /  4.8 °C 33.7 °F /  0.9 °C 30.45 in /  1031 hPa ENE 8.0 mph /  12.9 km/h 12.0 mph /  19.3 km/h 76 % 0.00 in /  0 mm 169 W/m2
14:31 40.5 °F /  4.7 °C 33.8 °F /  1 °C 30.45 in /  1031 hPa ENE 4.0 mph /  6.4 km/h 9.0 mph /  14.5 km/h 77 % 0.00 in /  0 mm 156 W/m2
14:36 40.5 °F /  4.7 °C 33.5 °F /  0.8 °C 30.45 in /  1031 hPa East 7.0 mph /  11.3 km/h 11.0 mph /  17.7 km/h 76 % 0.00 in /  0 mm 51 W/m2
14:41 40.3 °F /  4.6 °C 33.6 °F /  0.9 °C 30.45 in /  1031 hPa East 5.0 mph /  8 km/h 8.0 mph /  12.9 km/h 77 % 0.00 in /  0 mm 42 W/m2
14:46 40.1 °F /  4.5 °C 33.5 °F /  0.8 °C 30.45 in /  1031 hPa ENE 5.0 mph /  8 km/h 10.0 mph /  16.1 km/h 77 % 0.00 in /  0 mm 37 W/m2
14:51 39.9 °F /  4.4 °C 33.6 °F /  0.9 °C 30.45 in /  1031 hPa ENE 4.0 mph /  6.4 km/h 7.0 mph /  11.3 km/h 78 % 0.00 in /  0 mm 35 W/m2
14:54 39.9 °F /  4.4 °C 33.6 °F /  0.9 °C 30.45 in /  1031 hPa ENE 2.0 mph /  3.2 km/h 6.0 mph /  9.7 km/h 78 % 0.00 in /  0 mm 54 W/m2
14:59 39.6 °F /  4.2 °C 33.3 °F /  0.7 °C 30.45 in /  1031 hPa ENE 5.0 mph /  8 km/h 8.0 mph /  12.9 km/h 78 % 0.00 in /  0 mm 51 W/m2
15:02 39.6 °F /  4.2 °C 33.3 °F /  0.7 °C 30.45 in /  1031 hPa ENE 5.0 mph /  8 km/h 9.0 mph /  14.5 km/h 78 % 0.00 in /  0 mm 79 W/m2
15:08 39.4 °F /  4.1 °C 33.4 °F /  0.8 °C 30.45 in /  1031 hPa ENE 6.0 mph /  9.7 km/h 8.0 mph /  12.9 km/h 79 % 0.00 in /  0 mm 26 W/m2
15:11 39.2 °F /  4 °C 33.2 °F /  0.7 °C 30.45 in /  1031 hPa ENE 4.0 mph /  6.4 km/h 7.0 mph /  11.3 km/h 79 % 0.00 in /  0 mm 28 W/m2
15:16 39.0 °F /  3.9 °C 33.1 °F /  0.6 °C 30.45 in /  1031 hPa ENE 5.0 mph /  8 km/h 9.0 mph /  14.5 km/h 79 % 0.00 in /  0 mm 23 W/m2
15:20 38.8 °F /  3.8 °C 32.9 °F /  0.5 °C 30.45 in /  1031 hPa ENE 4.0 mph /  6.4 km/h 9.0 mph /  14.5 km/h 79 % 0.00 in /  0 mm 19 W/m2
15:25 38.8 °F /  3.8 °C 32.9 °F /  0.5 °C 30.45 in /  1031 hPa ENE 6.0 mph /  9.7 km/h 8.0 mph /  12.9 km/h 79 % 0.00 in /  0 mm 18 W/m2
15:30 38.7 °F /  3.7 °C 33.0 °F /  0.6 °C 30.46 in /  1031.4 hPa ENE 4.0 mph /  6.4 km/h 7.0 mph /  11.3 km/h 80 % 0.00 in /  0 mm 16 W/m2
15:34 38.5 °F /  3.6 °C 32.8 °F /  0.4 °C 30.45 in /  1031 hPa ENE 5.0 mph /  8 km/h 8.0 mph /  12.9 km/h 80 % 0.00 in /  0 mm 14 W/m2
15:40 38.1 °F /  3.4 °C 32.5 °F /  0.3 °C 30.45 in /  1031 hPa ENE 5.0 mph /  8 km/h 8.0 mph /  12.9 km/h 80 % 0.00 in /  0 mm 12 W/m2
15:45 37.9 °F /  3.3 °C 32.6 °F /  0.3 °C 30.46 in /  1031.4 hPa ENE 4.0 mph /  6.4 km/h 7.0 mph /  11.3 km/h 81 % 0.00 in /  0 mm 12 W/m2
15:50 37.9 °F /  3.3 °C 32.6 °F /  0.3 °C 30.46 in /  1031.4 hPa ENE 3.0 mph /  4.8 km/h 7.0 mph /  11.3 km/h 81 % 0.00 in /  0 mm 11 W/m2
15:56 37.8 °F /  3.2 °C 32.8 °F /  0.4 °C 30.46 in /  1031.4 hPa NE 3.0 mph /  4.8 km/h 7.0 mph /  11.3 km/h 82 % 0.00 in /  0 mm 9 W/m2
15:58 37.6 °F /  3.1 °C 32.6 °F /  0.3 °C 30.46 in /  1031.4 hPa NE 1.0 mph /  1.6 km/h 5.0 mph /  8 km/h 82 % 0.00 in /  0 mm 7 W/m2
16:03 37.4 °F /  3 °C 32.4 °F /  0.2 °C 30.46 in /  1031.4 hPa ENE 2.0 mph /  3.2 km/h 5.0 mph /  8 km/h 82 % 0.00 in /  0 mm 7 W/m2
16:08 37.2 °F /  2.9 °C 32.2 °F /  0.1 °C 30.46 in /  1031.4 hPa NE 3.0 mph /  4.8 km/h 5.0 mph /  8 km/h 82 % 0.00 in /  0 mm 5 W/m2
16:13 37.0 °F /  2.8 °C 32.4 °F /  0.2 °C 30.46 in /  1031.4 hPa ENE 5.0 mph /  8 km/h 8.0 mph /  12.9 km/h 83 % 0.00 in /  0 mm 0 W/m2
16:18 37.0 °F /  2.8 °C 32.4 °F /  0.2 °C 30.46 in /  1031.4 hPa ENE 3.0 mph /  4.8 km/h 6.0 mph /  9.7 km/h 83 % 0.00 in /  0 mm 0 W/m2
16:21 37.0 °F /  2.8 °C 32.4 °F /  0.2 °C 30.46 in /  1031.4 hPa East 2.0 mph /  3.2 km/h 4.0 mph /  6.4 km/h 83 % 0.00 in /  0 mm 0 W/m2
16:26 36.9 °F /  2.7 °C 32.2 °F /  0.1 °C 30.46 in /  1031.4 hPa ESE 1.0 mph /  1.6 km/h 3.0 mph /  4.8 km/h 83 % 0.00 in /  0 mm 0 W/m2
16:31 36.7 °F /  2.6 °C 32.3 °F /  0.2 °C 30.46 in /  1031.4 hPa Calm     84 % 0.00 in /  0 mm 0 W/m2
16:36 36.3 °F /  2.4 °C 31.9 °F /  -0.1 °C 30.46 in /  1031.4 hPa Calm     84 % 0.00 in /  0 mm 0 W/m2
16:41 36.0 °F /  2.2 °C 31.6 °F /  -0.2 °C 30.46 in /  1031.4 hPa Calm     84 % 0.00 in /  0 mm 0 W/m2
16:42 36.0 °F /  2.2 °C 31.6 °F /  -0.2 °C 30.46 in /  1031.4 hPa Calm     84 % 0.00 in /  0 mm 0 W/m2
16:47 35.6 °F /  2 °C 31.2 °F /  -0.4 °C 30.46 in /  1031.4 hPa Calm     84 % 0.00 in /  0 mm 0 W/m2
16:52 35.2 °F /  1.8 °C 31.2 °F /  -0.4 °C 30.46 in /  1031.4 hPa Calm     85 % 0.00 in /  0 mm 0 W/m2
16:56 35.1 °F /  1.7 °C 31.0 °F /  -0.6 °C 30.46 in /  1031.4 hPa Calm     85 % 0.00 in /  0 mm 0 W/m2
17:01 34.9 °F /  1.6 °C 31.1 °F /  -0.5 °C 30.47 in /  1031.7 hPa Calm   2.0 mph /  3.2 km/h 86 % 0.00 in /  0 mm 0 W/m2
17:06 34.9 °F /  1.6 °C 31.4 °F /  -0.3 °C 30.47 in /  1031.7 hPa ENE 1.0 mph /  1.6 km/h 4.0 mph /  6.4 km/h 87 % 0.00 in /  0 mm 0 W/m2
17:08 34.9 °F /  1.6 °C 31.4 °F /  -0.3 °C 30.47 in /  1031.7 hPa NE 1.0 mph /  1.6 km/h 4.0 mph /  6.4 km/h 87 % 0.00 in /  0 mm 0 W/m2
17:13 34.9 °F /  1.6 °C 31.4 °F /  -0.3 °C 30.47 in /  1031.7 hPa Calm   2.0 mph /  3.2 km/h 87 % 0.00 in /  0 mm 0 W/m2
17:18 34.5 °F /  1.4 °C 31.0 °F /  -0.6 °C 30.47 in /  1031.7 hPa Calm     87 % 0.00 in /  0 mm 0 W/m2
17:21 34.5 °F /  1.4 °C 31.0 °F /  -0.6 °C 30.47 in /  1031.7 hPa Calm     87 % 0.00 in /  0 mm 0 W/m2
17:24 34.3 °F /  1.3 °C 30.9 °F /  -0.6 °C 30.47 in /  1031.7 hPa Calm     87 % 0.00 in /  0 mm 0 W/m2
17:29 34.3 °F /  1.3 °C 31.2 °F /  -0.4 °C 30.47 in /  1031.7 hPa NE 1.0 mph /  1.6 km/h 3.0 mph /  4.8 km/h 88 % 0.00 in /  0 mm 0 W/m2
17:35 34.5 °F /  1.4 °C 31.3 °F /  -0.4 °C 30.47 in /  1031.7 hPa NNE 2.0 mph /  3.2 km/h 6.0 mph /  9.7 km/h 88 % 0.00 in /  0 mm 0 W/m2
17:37 34.5 °F /  1.4 °C 31.3 °F /  -0.4 °C 30.47 in /  1031.7 hPa NNE 2.0 mph /  3.2 km/h 5.0 mph /  8 km/h 88 % 0.00 in /  0 mm 0 W/m2
17:42 34.7 °F /  1.5 °C 31.5 °F /  -0.3 °C 30.47 in /  1031.7 hPa NE 2.0 mph /  3.2 km/h 5.0 mph /  8 km/h 88 % 0.00 in /  0 mm 0 W/m2
17:46 34.7 °F /  1.5 °C 31.5 °F /  -0.3 °C 30.47 in /  1031.7 hPa NNE 1.0 mph /  1.6 km/h 4.0 mph /  6.4 km/h 88 % 0.00 in /  0 mm 0 W/m2
17:51 34.5 °F /  1.4 °C 31.3 °F /  -0.4 °C 30.47 in /  1031.7 hPa ENE 1.0 mph /  1.6 km/h 5.0 mph /  8 km/h 88 % 0.00 in /  0 mm 0 W/m2
17:56 34.5 °F /  1.4 °C 31.3 °F /  -0.4 °C 30.47 in /  1031.7 hPa Calm   1.0 mph /  1.6 km/h 88 % 0.00 in /  0 mm 0 W/m2
17:59 34.3 °F /  1.3 °C 31.2 °F /  -0.4 °C 30.47 in /  1031.7 hPa Calm   1.0 mph /  1.6 km/h 88 % 0.00 in /  0 mm 0 W/m2
18:04 34.2 °F /  1.2 °C 30.7 °F /  -0.7 °C 30.47 in /  1031.7 hPa East 1.0 mph /  1.6 km/h 5.0 mph /  8 km/h 87 % 0.00 in /  0 mm 0 W/m2
18:09 34.0 °F /  1.1 °C 30.8 °F /  -0.7 °C 30.47 in /  1031.7 hPa Calm   2.0 mph /  3.2 km/h 88 % 0.00 in /  0 mm 0 W/m2
18:14 33.6 °F /  0.9 °C 30.2 °F /  -1 °C 30.47 in /  1031.7 hPa Calm   1.0 mph /  1.6 km/h 87 % 0.00 in /  0 mm 0 W/m2
18:15 33.6 °F /  0.9 °C 30.2 °F /  -1 °C 30.47 in /  1031.7 hPa Calm   1.0 mph /  1.6 km/h 87 % 0.00 in /  0 mm 0 W/m2
18:20 33.3 °F /  0.7 °C 30.1 °F /  -1.1 °C 30.47 in /  1031.7 hPa Calm   2.0 mph /  3.2 km/h 88 % 0.00 in /  0 mm 0 W/m2
18:25 33.1 °F /  0.6 °C 29.9 °F /  -1.2 °C 30.46 in /  1031.4 hPa Calm   2.0 mph /  3.2 km/h 88 % 0.00 in /  0 mm 0 W/m2
18:30 33.1 °F /  0.6 °C 30.2 °F /  -1 °C 30.47 in /  1031.7 hPa Calm   2.0 mph /  3.2 km/h 89 % 0.00 in /  0 mm 0 W/m2
18:31 33.1 °F /  0.6 °C 30.2 °F /  -1 °C 30.47 in /  1031.7 hPa Calm   1.0 mph /  1.6 km/h 89 % 0.00 in /  0 mm 0 W/m2
18:36 32.5 °F /  0.3 °C 29.4 °F /  -1.4 °C 30.47 in /  1031.7 hPa Calm     88 % 0.00 in /  0 mm 0 W/m2
18:37 32.5 °F /  0.3 °C 29.4 °F /  -1.4 °C 30.47 in /  1031.7 hPa Calm     88 % 0.00 in /  0 mm 0 W/m2
18:42 32.2 °F /  0.1 °C 29.0 °F /  -1.7 °C 30.46 in /  1031.4 hPa Calm     88 % 0.00 in /  0 mm 0 W/m2
18:47 31.6 °F /  -0.2 °C 28.5 °F /  -1.9 °C 30.46 in /  1031.4 hPa Calm     88 % 0.00 in /  0 mm 0 W/m2
18:52 31.3 °F /  -0.4 °C 28.1 °F /  -2.2 °C 30.46 in /  1031.4 hPa Calm     88 % 0.00 in /  0 mm 0 W/m2
18:54 31.3 °F /  -0.4 °C 28.1 °F /  -2.2 °C 30.47 in /  1031.7 hPa Calm     88 % 0.00 in /  0 mm 0 W/m2
18:59 30.9 °F /  -0.6 °C 28.1 °F /  -2.2 °C 30.47 in /  1031.7 hPa Calm     89 % 0.00 in /  0 mm 0 W/m2
19:04 30.7 °F /  -0.7 °C 27.9 °F /  -2.3 °C 30.47 in /  1031.7 hPa Calm     89 % 0.00 in /  0 mm 0 W/m2
19:09 30.6 °F /  -0.8 °C 28.0 °F /  -2.2 °C 30.47 in /  1031.7 hPa Calm     90 % 0.00 in /  0 mm 0 W/m2
19:14 30.4 °F /  -0.9 °C 27.8 °F /  -2.3 °C 30.47 in /  1031.7 hPa Calm     90 % 0.00 in /  0 mm 0 W/m2
19:20 30.0 °F /  -1.1 °C 27.4 °F /  -2.6 °C 30.46 in /  1031.4 hPa Calm   2.0 mph /  3.2 km/h 90 % 0.00 in /  0 mm 0 W/m2
19:25 29.8 °F /  -1.2 °C 27.3 °F /  -2.6 °C 30.47 in /  1031.7 hPa Calm   2.0 mph /  3.2 km/h 90 % 0.00 in /  0 mm 0 W/m2
19:26 29.8 °F /  -1.2 °C 27.3 °F /  -2.6 °C 30.47 in /  1031.7 hPa Calm   2.0 mph /  3.2 km/h 90 % 0.00 in /  0 mm 0 W/m2
19:27 29.8 °F /  -1.2 °C 27.3 °F /  -2.6 °C 30.47 in /  1031.7 hPa Calm   2.0 mph /  3.2 km/h 90 % 0.00 in /  0 mm 0 W/m2
19:32 29.7 °F /  -1.3 °C 27.4 °F /  -2.6 °C 30.47 in /  1031.7 hPa NW 1.0 mph /  1.6 km/h 2.0 mph /  3.2 km/h 91 % 0.00 in /  0 mm 0 W/m2
19:34 29.5 °F /  -1.4 °C 27.2 °F /  -2.7 °C 30.46 in /  1031.4 hPa Calm     91 % 0.00 in /  0 mm 0 W/m2
19:39 29.5 °F /  -1.4 °C 27.2 °F /  -2.7 °C 30.47 in /  1031.7 hPa Calm   1.0 mph /  1.6 km/h 91 % 0.00 in /  0 mm 0 W/m2
19:43 29.3 °F /  -1.5 °C 27.0 °F /  -2.8 °C 30.47 in /  1031.7 hPa Calm     91 % 0.00 in /  0 mm 0 W/m2
19:48 29.1 °F /  -1.6 °C 26.8 °F /  -2.9 °C 30.47 in /  1031.7 hPa Calm   1.0 mph /  1.6 km/h 91 % 0.00 in /  0 mm 0 W/m2
19:53 29.1 °F /  -1.6 °C 27.1 °F /  -2.7 °C 30.47 in /  1031.7 hPa Calm     92 % 0.00 in /  0 mm 0 W/m2
19:56 29.1 °F /  -1.6 °C 27.1 °F /  -2.7 °C 30.47 in /  1031.7 hPa Calm     92 % 0.00 in /  0 mm 0 W/m2
20:00 29.1 °F /  -1.6 °C 27.1 °F /  -2.7 °C 30.47 in /  1031.7 hPa Calm     92 % 0.00 in /  0 mm 0 W/m2
20:01 29.1 °F /  -1.6 °C 27.1 °F /  -2.7 °C 30.47 in /  1031.7 hPa Calm     92 % 0.00 in /  0 mm 0 W/m2
20:06 28.8 °F /  -1.8 °C 26.7 °F /  -2.9 °C 30.47 in /  1031.7 hPa Calm     92 % 0.00 in /  0 mm 0 W/m2
20:12 28.8 °F /  -1.8 °C 26.7 °F /  -2.9 °C 30.47 in /  1031.7 hPa Calm     92 % 0.00 in /  0 mm 0 W/m2
20:17 28.6 °F /  -1.9 °C 26.6 °F /  -3 °C 30.47 in /  1031.7 hPa Calm     92 % 0.00 in /  0 mm 0 W/m2
20:22 28.6 °F /  -1.9 °C 26.6 °F /  -3 °C 30.47 in /  1031.7 hPa Calm   1.0 mph /  1.6 km/h 92 % 0.00 in /  0 mm 0 W/m2
20:27 28.4 °F /  -2 °C 26.4 °F /  -3.1 °C 30.47 in /  1031.7 hPa Calm     92 % 0.00 in /  0 mm 0 W/m2
20:32 28.2 °F /  -2.1 °C 26.5 °F /  -3.1 °C 30.47 in /  1031.7 hPa Calm   2.0 mph /  3.2 km/h 93 % 0.00 in /  0 mm 0 W/m2
20:35 28.2 °F /  -2.1 °C 26.5 °F /  -3.1 °C 30.46 in /  1031.4 hPa Calm   4.0 mph /  6.4 km/h 93 % 0.00 in /  0 mm 0 W/m2
20:45 28.4 °F /  -2 °C 26.6 °F /  -3 °C 30.46 in /  1031.4 hPa Calm     93 % 0.00 in /  0 mm 0 W/m2
20:51 28.2 °F /  -2.1 °C 26.5 °F /  -3.1 °C 30.46 in /  1031.4 hPa Calm     93 % 0.00 in /  0 mm 0 W/m2
20:55 28.2 °F /  -2.1 °C 26.5 °F /  -3.1 °C 30.46 in /  1031.4 hPa Calm     93 % 0.00 in /  0 mm 0 W/m2
21:00 28.0 °F /  -2.2 °C 26.3 °F /  -3.2 °C 30.46 in /  1031.4 hPa Calm     93 % 0.00 in /  0 mm 0 W/m2
21:01 28.0 °F /  -2.2 °C 26.3 °F /  -3.2 °C 30.46 in /  1031.4 hPa Calm     93 % 0.00 in /  0 mm 0 W/m2
21:06 27.9 °F /  -2.3 °C 26.1 °F /  -3.3 °C 30.46 in /  1031.4 hPa Calm   2.0 mph /  3.2 km/h 93 % 0.00 in /  0 mm 0 W/m2
21:11 27.9 °F /  -2.3 °C 26.1 °F /  -3.3 °C 30.46 in /  1031.4 hPa SW 1.0 mph /  1.6 km/h 4.0 mph /  6.4 km/h 93 % 0.00 in /  0 mm 0 W/m2
21:16 27.9 °F /  -2.3 °C 26.1 °F /  -3.3 °C 30.46 in /  1031.4 hPa Calm     93 % 0.00 in /  0 mm 0 W/m2
21:21 28.0 °F /  -2.2 °C 26.5 °F /  -3.1 °C 30.46 in /  1031.4 hPa Calm     94 % 0.00 in /  0 mm 0 W/m2
21:25 28.0 °F /  -2.2 °C 26.5 °F /  -3.1 °C 30.46 in /  1031.4 hPa SW 1.0 mph /  1.6 km/h 2.0 mph /  3.2 km/h 94 % 0.00 in /  0 mm 0 W/m2
21:30 27.9 °F /  -2.3 °C 26.1 °F /  -3.3 °C 30.46 in /  1031.4 hPa SW 1.0 mph /  1.6 km/h 2.0 mph /  3.2 km/h 93 % 0.00 in /  0 mm 0 W/m2
21:35 27.9 °F /  -2.3 °C 26.1 °F /  -3.3 °C 30.46 in /  1031.4 hPa Calm   1.0 mph /  1.6 km/h 93 % 0.00 in /  0 mm 0 W/m2
21:41 27.7 °F /  -2.4 °C 25.9 °F /  -3.4 °C 30.46 in /  1031.4 hPa SW 1.0 mph /  1.6 km/h 3.0 mph /  4.8 km/h 93 % 0.00 in /  0 mm 0 W/m2
21:46 27.5 °F /  -2.5 °C 25.7 °F /  -3.5 °C 30.46 in /  1031.4 hPa SW 2.0 mph /  3.2 km/h 4.0 mph /  6.4 km/h 93 % 0.00 in /  0 mm 0 W/m2
21:47 27.5 °F /  -2.5 °C 25.7 °F /  -3.5 °C 30.46 in /  1031.4 hPa SW 2.0 mph /  3.2 km/h 4.0 mph /  6.4 km/h 93 % 0.00 in /  0 mm 0 W/m2
21:51 27.7 °F /  -2.4 °C 26.2 °F /  -3.2 °C 30.46 in /  1031.4 hPa Calm     94 % 0.00 in /  0 mm 0 W/m2
21:56 27.7 °F /  -2.4 °C 26.2 °F /  -3.2 °C 30.46 in /  1031.4 hPa Calm     94 % 0.00 in /  0 mm 0 W/m2
22:01 27.5 °F /  -2.5 °C 25.7 °F /  -3.5 °C 30.46 in /  1031.4 hPa Calm   2.0 mph /  3.2 km/h 93 % 0.00 in /  0 mm 0 W/m2
22:07 27.3 °F /  -2.6 °C 25.6 °F /  -3.6 °C 30.45 in /  1031 hPa Calm     93 % 0.00 in /  0 mm 0 W/m2
22:14 27.3 °F /  -2.6 °C 25.8 °F /  -3.4 °C 30.45 in /  1031 hPa SW 1.0 mph /  1.6 km/h 2.0 mph /  3.2 km/h 94 % 0.00 in /  0 mm 0 W/m2
22:17 27.3 °F /  -2.6 °C 25.8 °F /  -3.4 °C 30.45 in /  1031 hPa Calm   1.0 mph /  1.6 km/h 94 % 0.00 in /  0 mm 0 W/m2
22:22 27.3 °F /  -2.6 °C 25.8 °F /  -3.4 °C 30.45 in /  1031 hPa Calm   1.0 mph /  1.6 km/h 94 % 0.00 in /  0 mm 0 W/m2
22:28 27.5 °F /  -2.5 °C 26.0 °F /  -3.3 °C 30.45 in /  1031 hPa Calm     94 % 0.00 in /  0 mm 0 W/m2
22:33 27.5 °F /  -2.5 °C 26.0 °F /  -3.3 °C 30.45 in /  1031 hPa Calm     94 % 0.00 in /  0 mm 0 W/m2
22:38 27.5 °F /  -2.5 °C 26.0 °F /  -3.3 °C 30.45 in /  1031 hPa Calm     94 % 0.00 in /  0 mm 0 W/m2
22:44 27.3 °F /  -2.6 °C 25.8 °F /  -3.4 °C 30.45 in /  1031 hPa Calm     94 % 0.00 in /  0 mm 0 W/m2
22:48 27.0 °F /  -2.8 °C 25.5 °F /  -3.6 °C 30.45 in /  1031 hPa Calm     94 % 0.00 in /  0 mm 0 W/m2
22:50 27.0 °F /  -2.8 °C 25.5 °F /  -3.6 °C 30.45 in /  1031 hPa Calm     94 % 0.00 in /  0 mm 0 W/m2
22:55 26.8 °F /  -2.9 °C 25.0 °F /  -3.9 °C 30.45 in /  1031 hPa Calm   2.0 mph /  3.2 km/h 93 % 0.00 in /  0 mm 0 W/m2
23:00 26.4 °F /  -3.1 °C 24.7 °F /  -4.1 °C 30.45 in /  1031 hPa SW 1.0 mph /  1.6 km/h 2.0 mph /  3.2 km/h 93 % 0.00 in /  0 mm 0 W/m2
23:05 26.4 °F /  -3.1 °C 24.9 °F /  -3.9 °C 30.45 in /  1031 hPa SW 1.0 mph /  1.6 km/h 4.0 mph /  6.4 km/h 94 % 0.00 in /  0 mm 0 W/m2
23:10 26.4 °F /  -3.1 °C 24.9 °F /  -3.9 °C 30.45 in /  1031 hPa SW 2.0 mph /  3.2 km/h 5.0 mph /  8 km/h 94 % 0.00 in /  0 mm 0 W/m2
23:15 26.4 °F /  -3.1 °C 24.9 °F /  -3.9 °C 30.45 in /  1031 hPa Calm   2.0 mph /  3.2 km/h 94 % 0.00 in /  0 mm 0 W/m2
23:19 26.4 °F /  -3.1 °C 24.9 °F /  -3.9 °C 30.45 in /  1031 hPa SW 1.0 mph /  1.6 km/h 2.0 mph /  3.2 km/h 94 % 0.00 in /  0 mm 0 W/m2
23:24 26.6 °F /  -3 °C 25.1 °F /  -3.8 °C 30.44 in /  1030.7 hPa SW 1.0 mph /  1.6 km/h 5.0 mph /  8 km/h 94 % 0.00 in /  0 mm 0 W/m2
23:29 26.8 °F /  -2.9 °C 25.3 °F /  -3.7 °C 30.44 in /  1030.7 hPa Calm     94 % 0.00 in /  0 mm 0 W/m2
23:31 26.8 °F /  -2.9 °C 25.3 °F /  -3.7 °C 30.44 in /  1030.7 hPa Calm     94 % 0.00 in /  0 mm 0 W/m2
23:36 26.8 °F /  -2.9 °C 25.3 °F /  -3.7 °C 30.44 in /  1030.7 hPa Calm     94 % 0.00 in /  0 mm 0 W/m2
23:38 26.8 °F /  -2.9 °C 25.3 °F /  -3.7 °C 30.44 in /  1030.7 hPa Calm     94 % 0.00 in /  0 mm 0 W/m2
23:43 26.6 °F /  -3 °C 25.1 °F /  -3.8 °C 30.44 in /  1030.7 hPa Calm     94 % 0.00 in /  0 mm 0 W/m2
23:46 26.6 °F /  -3 °C 25.1 °F /  -3.8 °C 30.44 in /  1030.7 hPa Calm     94 % 0.00 in /  0 mm 0 W/m2
23:47 26.6 °F /  -3 °C 25.1 °F /  -3.8 °C 30.44 in /  1030.7 hPa Calm     94 % 0.00 in /  0 mm 0 W/m2
23:53 26.4 °F /  -3.1 °C 24.9 °F /  -3.9 °C 30.44 in /  1030.7 hPa Calm   1.0 mph /  1.6 km/h 94 % 0.00 in /  0 mm 0 W/m2
Delerius-Weather
Compliments of Weather Underground - 2.5 mb

Data updates at regular intervals.